Airport View

Enter AWOS ICAO identifier for current METAR.

ex. KFNL

KWVL 251056Z AUTO 33004KT 10SM CLR 01/M02 A3015 RMK AO2 SLP241 T00111022 FZRANO

25 Oct 2020 11:31

Frequency: 118.375

Phone: 207-877-0519

Other Area AWOS: KOWK - KAUG - KBST - KIWI

TAF KAUG 250529Z 2506/2606 34007KT P6SM FEW250 FM252200 VRB04KT P6SM FEW250